sensor_id;sensor_type;location;lat;lon;timestamp;P1;durP1;ratioP1;P2;durP2;ratioP2
5787;SDS011;2920;48.158;12.254;2022-10-16T00:01:08;3.58;;;2.95;;
5787;SDS011;2920;48.158;12.254;2022-10-16T00:03:36;2.60;;;1.85;;
5787;SDS011;2920;48.158;12.254;2022-10-16T00:06:01;4.47;;;2.35;;
5787;SDS011;2920;48.158;12.254;2022-10-16T00:08:27;3.28;;;2.05;;
5787;SDS011;2920;48.158;12.254;2022-10-16T00:10:52;4.13;;;2.20;;
5787;SDS011;2920;48.158;12.254;2022-10-16T00:13:24;5.97;;;3.38;;
5787;SDS011;2920;48.158;12.254;2022-10-16T00:15:49;3.08;;;2.47;;
5787;SDS011;2920;48.158;12.254;2022-10-16T00:18:14;3.70;;;2.50;;
5787;SDS011;2920;48.158;12.254;2022-10-16T00:20:39;3.38;;;2.58;;
5787;SDS011;2920;48.158;12.254;2022-10-16T00:23:05;3.00;;;2.33;;
5787;SDS011;2920;48.158;12.254;2022-10-16T00:25:30;6.43;;;3.05;;
5787;SDS011;2920;48.158;12.254;2022-10-16T00:27:58;5.35;;;2.67;;
5787;SDS011;2920;48.158;12.254;2022-10-16T00:30:24;4.88;;;2.30;;
5787;SDS011;2920;48.158;12.254;2022-10-16T00:32:51;3.17;;;2.78;;
5787;SDS011;2920;48.158;12.254;2022-10-16T00:35:17;5.10;;;2.60;;
5787;SDS011;2920;48.158;12.254;2022-10-16T00:37:42;3.45;;;2.33;;
5787;SDS011;2920;48.158;12.254;2022-10-16T00:40:08;3.38;;;2.10;;
5787;SDS011;2920;48.158;12.254;2022-10-16T00:42:34;3.28;;;2.28;;
5787;SDS011;2920;48.158;12.254;2022-10-16T00:44:59;3.33;;;2.33;;
5787;SDS011;2920;48.158;12.254;2022-10-16T00:47:32;4.43;;;2.67;;
5787;SDS011;2920;48.158;12.254;2022-10-16T00:52:46;3.25;;;2.17;;
5787;SDS011;2920;48.158;12.254;2022-10-16T00:55:13;3.70;;;2.33;;
5787;SDS011;2920;48.158;12.254;2022-10-16T00:57:39;3.60;;;1.92;;
5787;SDS011;2920;48.158;12.254;2022-10-16T01:00:06;3.97;;;2.33;;
5787;SDS011;2920;48.158;12.254;2022-10-16T01:02:33;3.20;;;2.20;;
5787;SDS011;2920;48.158;12.254;2022-10-16T01:04:58;3.13;;;2.38;;
5787;SDS011;2920;48.158;12.254;2022-10-16T01:17:43;5.35;;;3.33;;
5787;SDS011;2920;48.158;12.254;2022-10-16T01:22:56;7.43;;;3.13;;
5787;SDS011;2920;48.158;12.254;2022-10-16T01:28:22;3.95;;;2.67;;
5787;SDS011;2920;48.158;12.254;2022-10-16T01:30:52;9.40;;;2.78;;
5787;SDS011;2920;48.158;12.254;2022-10-16T01:33:22;2.60;;;2.00;;
5787;SDS011;2920;48.158;12.254;2022-10-16T01:35:54;7.28;;;2.30;;
5787;SDS011;2920;48.158;12.254;2022-10-16T01:40:52;4.03;;;2.88;;
5787;SDS011;2920;48.158;12.254;2022-10-16T01:43:25;5.55;;;3.47;;
5787;SDS011;2920;48.158;12.254;2022-10-16T01:45:53;4.55;;;3.20;;
5787;SDS011;2920;48.158;12.254;2022-10-16T01:48:19;7.05;;;3.03;;
5787;SDS011;2920;48.158;12.254;2022-10-16T01:50:52;3.17;;;2.65;;
5787;SDS011;2920;48.158;12.254;2022-10-16T01:53:20;4.65;;;3.03;;
5787;SDS011;2920;48.158;12.254;2022-10-16T01:55:47;3.20;;;2.80;;
5787;SDS011;2920;48.158;12.254;2022-10-16T01:58:13;5.63;;;2.58;;
5787;SDS011;2920;48.158;12.254;2022-10-16T02:00:40;4.88;;;2.90;;
5787;SDS011;2920;48.158;12.254;2022-10-16T02:03:07;4.68;;;2.75;;
5787;SDS011;2920;48.158;12.254;2022-10-16T02:05:34;3.95;;;2.67;;
5787;SDS011;2920;48.158;12.254;2022-10-16T02:08:03;3.85;;;2.40;;
5787;SDS011;2920;48.158;12.254;2022-10-16T02:10:29;5.65;;;2.80;;
5787;SDS011;2920;48.158;12.254;2022-10-16T02:13:18;4.15;;;2.83;;
5787;SDS011;2920;48.158;12.254;2022-10-16T02:15:49;10.45;;;3.33;;
5787;SDS011;2920;48.158;12.254;2022-10-16T02:18:14;6.57;;;3.10;;
5787;SDS011;2920;48.158;12.254;2022-10-16T02:20:45;3.30;;;2.50;;
5787;SDS011;2920;48.158;12.254;2022-10-16T02:23:19;7.07;;;3.28;;
5787;SDS011;2920;48.158;12.254;2022-10-16T02:25:49;6.20;;;3.95;;
5787;SDS011;2920;48.158;12.254;2022-10-16T02:30:46;5.70;;;3.22;;
5787;SDS011;2920;48.158;12.254;2022-10-16T02:33:15;4.18;;;2.60;;
5787;SDS011;2920;48.158;12.254;2022-10-16T02:35:41;4.47;;;3.17;;
5787;SDS011;2920;48.158;12.254;2022-10-16T02:38:08;3.55;;;2.65;;
5787;SDS011;2920;48.158;12.254;2022-10-16T02:40:34;4.22;;;3.00;;
5787;SDS011;2920;48.158;12.254;2022-10-16T02:43:00;5.88;;;2.58;;
5787;SDS011;2920;48.158;12.254;2022-10-16T02:45:28;7.63;;;2.70;;
5787;SDS011;2920;48.158;12.254;2022-10-16T02:47:54;3.60;;;2.50;;
5787;SDS011;2920;48.158;12.254;2022-10-16T02:50:19;3.45;;;2.70;;
5787;SDS011;2920;48.158;12.254;2022-10-16T02:52:44;3.53;;;2.75;;
5787;SDS011;2920;48.158;12.254;2022-10-16T02:55:10;3.95;;;2.90;;
5787;SDS011;2920;48.158;12.254;2022-10-16T02:57:35;4.35;;;2.88;;
5787;SDS011;2920;48.158;12.254;2022-10-16T03:00:02;3.55;;;2.70;;
5787;SDS011;2920;48.158;12.254;2022-10-16T03:04:56;4.73;;;2.70;;
5787;SDS011;2920;48.158;12.254;2022-10-16T03:07:22;4.20;;;2.67;;
5787;SDS011;2920;48.158;12.254;2022-10-16T03:09:47;4.22;;;2.20;;
5787;SDS011;2920;48.158;12.254;2022-10-16T03:12:12;2.17;;;1.67;;
5787;SDS011;2920;48.158;12.254;2022-10-16T03:14:38;2.92;;;2.42;;
5787;SDS011;2920;48.158;12.254;2022-10-16T03:17:04;5.20;;;3.40;;
5787;SDS011;2920;48.158;12.254;2022-10-16T03:19:30;4.57;;;3.03;;
5787;SDS011;2920;48.158;12.254;2022-10-16T03:21:55;5.57;;;3.55;;
5787;SDS011;2920;48.158;12.254;2022-10-16T03:24:20;9.52;;;4.18;;
5787;SDS011;2920;48.158;12.254;2022-10-16T03:26:46;5.20;;;4.20;;
5787;SDS011;2920;48.158;12.254;2022-10-16T03:29:11;10.77;;;4.30;;
5787;SDS011;2920;48.158;12.254;2022-10-16T03:31:36;6.25;;;3.40;;
5787;SDS011;2920;48.158;12.254;2022-10-16T03:34:01;4.90;;;3.28;;
5787;SDS011;2920;48.158;12.254;2022-10-16T03:36:27;4.53;;;3.20;;
5787;SDS011;2920;48.158;12.254;2022-10-16T03:38:52;4.47;;;2.83;;
5787;SDS011;2920;48.158;12.254;2022-10-16T03:41:17;3.88;;;3.17;;
5787;SDS011;2920;48.158;12.254;2022-10-16T03:43:43;6.00;;;3.42;;
5787;SDS011;2920;48.158;12.254;2022-10-16T03:46:08;4.47;;;3.10;;
5787;SDS011;2920;48.158;12.254;2022-10-16T03:48:33;4.93;;;2.50;;
5787;SDS011;2920;48.158;12.254;2022-10-16T03:50:58;6.88;;;3.38;;
5787;SDS011;2920;48.158;12.254;2022-10-16T03:53:24;4.13;;;2.58;;
5787;SDS011;2920;48.158;12.254;2022-10-16T03:55:49;6.10;;;3.67;;
5787;SDS011;2920;48.158;12.254;2022-10-16T03:58:15;7.25;;;2.88;;
5787;SDS011;2920;48.158;12.254;2022-10-16T04:00:41;4.75;;;3.03;;
5787;SDS011;2920;48.158;12.254;2022-10-16T04:03:07;6.05;;;3.05;;
5787;SDS011;2920;48.158;12.254;2022-10-16T04:05:33;5.78;;;2.85;;
5787;SDS011;2920;48.158;12.254;2022-10-16T04:07:58;4.20;;;2.55;;
5787;SDS011;2920;48.158;12.254;2022-10-16T04:10:24;3.30;;;2.50;;
5787;SDS011;2920;48.158;12.254;2022-10-16T04:12:49;3.55;;;2.53;;
5787;SDS011;2920;48.158;12.254;2022-10-16T04:15:14;3.95;;;2.65;;
5787;SDS011;2920;48.158;12.254;2022-10-16T04:17:40;4.32;;;2.78;;
5787;SDS011;2920;48.158;12.254;2022-10-16T04:20:05;5.85;;;2.53;;
5787;SDS011;2920;48.158;12.254;2022-10-16T04:22:31;2.08;;;1.70;;
5787;SDS011;2920;48.158;12.254;2022-10-16T04:24:56;3.63;;;2.13;;
5787;SDS011;2920;48.158;12.254;2022-10-16T04:27:21;4.22;;;2.60;;
5787;SDS011;2920;48.158;12.254;2022-10-16T04:29:47;3.33;;;2.42;;
5787;SDS011;2920;48.158;12.254;2022-10-16T04:32:12;2.60;;;2.22;;
5787;SDS011;2920;48.158;12.254;2022-10-16T04:34:38;4.53;;;2.78;;
5787;SDS011;2920;48.158;12.254;2022-10-16T04:37:04;4.07;;;2.88;;
5787;SDS011;2920;48.158;12.254;2022-10-16T04:39:29;4.40;;;2.50;;
5787;SDS011;2920;48.158;12.254;2022-10-16T04:41:55;3.25;;;2.50;;
5787;SDS011;2920;48.158;12.254;2022-10-16T04:44:20;3.40;;;2.10;;
5787;SDS011;2920;48.158;12.254;2022-10-16T04:46:45;5.03;;;3.25;;
5787;SDS011;2920;48.158;12.254;2022-10-16T04:49:10;4.00;;;2.95;;
5787;SDS011;2920;48.158;12.254;2022-10-16T04:51:36;4.30;;;2.92;;
5787;SDS011;2920;48.158;12.254;2022-10-16T04:54:01;4.63;;;2.90;;
5787;SDS011;2920;48.158;12.254;2022-10-16T04:56:26;6.25;;;4.22;;
5787;SDS011;2920;48.158;12.254;2022-10-16T04:58:52;4.45;;;2.97;;
5787;SDS011;2920;48.158;12.254;2022-10-16T05:01:17;5.57;;;3.80;;
5787;SDS011;2920;48.158;12.254;2022-10-16T05:03:42;5.10;;;3.20;;
5787;SDS011;2920;48.158;12.254;2022-10-16T05:06:08;5.22;;;3.25;;
5787;SDS011;2920;48.158;12.254;2022-10-16T05:08:33;5.70;;;4.25;;
5787;SDS011;2920;48.158;12.254;2022-10-16T05:10:59;4.88;;;3.20;;
5787;SDS011;2920;48.158;12.254;2022-10-16T05:13:25;4.72;;;3.58;;
5787;SDS011;2920;48.158;12.254;2022-10-16T05:15:50;4.20;;;3.28;;
5787;SDS011;2920;48.158;12.254;2022-10-16T05:18:15;3.53;;;2.80;;
5787;SDS011;2920;48.158;12.254;2022-10-16T05:20:41;3.97;;;2.85;;
5787;SDS011;2920;48.158;12.254;2022-10-16T05:23:07;3.28;;;2.17;;
5787;SDS011;2920;48.158;12.254;2022-10-16T05:25:32;2.90;;;2.30;;
5787;SDS011;2920;48.158;12.254;2022-10-16T05:27:58;4.95;;;3.50;;
5787;SDS011;2920;48.158;12.254;2022-10-16T05:30:23;3.33;;;2.22;;
5787;SDS011;2920;48.158;12.254;2022-10-16T05:32:49;3.45;;;2.10;;
5787;SDS011;2920;48.158;12.254;2022-10-16T05:35:15;5.57;;;4.00;;
5787;SDS011;2920;48.158;12.254;2022-10-16T05:37:40;4.30;;;3.25;;
5787;SDS011;2920;48.158;12.254;2022-10-16T05:40:06;4.35;;;2.85;;
5787;SDS011;2920;48.158;12.254;2022-10-16T05:42:32;4.13;;;2.83;;
5787;SDS011;2920;48.158;12.254;2022-10-16T05:44:57;5.50;;;2.92;;
5787;SDS011;2920;48.158;12.254;2022-10-16T05:47:22;6.80;;;3.65;;
5787;SDS011;2920;48.158;12.254;2022-10-16T05:49:48;3.53;;;2.45;;
5787;SDS011;2920;48.158;12.254;2022-10-16T05:52:13;4.60;;;3.10;;
5787;SDS011;2920;48.158;12.254;2022-10-16T05:54:38;6.78;;;3.13;;
5787;SDS011;2920;48.158;12.254;2022-10-16T05:57:04;3.67;;;2.47;;
5787;SDS011;2920;48.158;12.254;2022-10-16T05:59:30;9.32;;;3.95;;
5787;SDS011;2920;48.158;12.254;2022-10-16T06:01:56;6.75;;;3.58;;
5787;SDS011;2920;48.158;12.254;2022-10-16T06:04:21;5.55;;;3.08;;
5787;SDS011;2920;48.158;12.254;2022-10-16T06:06:47;3.80;;;2.92;;
5787;SDS011;2920;48.158;12.254;2022-10-16T06:09:12;3.80;;;2.88;;
5787;SDS011;2920;48.158;12.254;2022-10-16T06:11:37;5.20;;;3.30;;
5787;SDS011;2920;48.158;12.254;2022-10-16T06:14:03;5.22;;;3.47;;
5787;SDS011;2920;48.158;12.254;2022-10-16T06:16:32;6.88;;;4.00;;
5787;SDS011;2920;48.158;12.254;2022-10-16T06:18:58;5.80;;;3.80;;
5787;SDS011;2920;48.158;12.254;2022-10-16T06:21:25;6.72;;;4.05;;
5787;SDS011;2920;48.158;12.254;2022-10-16T06:23:51;6.03;;;4.03;;
5787;SDS011;2920;48.158;12.254;2022-10-16T06:26:17;7.50;;;4.53;;
5787;SDS011;2920;48.158;12.254;2022-10-16T06:28:43;5.88;;;4.00;;
5787;SDS011;2920;48.158;12.254;2022-10-16T06:31:10;5.93;;;4.28;;
5787;SDS011;2920;48.158;12.254;2022-10-16T06:33:36;7.15;;;3.92;;
5787;SDS011;2920;48.158;12.254;2022-10-16T06:38:28;7.07;;;3.92;;
5787;SDS011;2920;48.158;12.254;2022-10-16T06:40:53;4.90;;;3.88;;
5787;SDS011;2920;48.158;12.254;2022-10-16T06:43:19;5.43;;;3.67;;
5787;SDS011;2920;48.158;12.254;2022-10-16T06:45:50;8.25;;;4.00;;
5787;SDS011;2920;48.158;12.254;2022-10-16T06:48:21;8.02;;;4.47;;
5787;SDS011;2920;48.158;12.254;2022-10-16T06:51:00;5.03;;;3.85;;
5787;SDS011;2920;48.158;12.254;2022-10-16T06:53:36;6.25;;;3.85;;
5787;SDS011;2920;48.158;12.254;2022-10-16T06:56:13;7.85;;;3.67;;
5787;SDS011;2920;48.158;12.254;2022-10-16T06:58:40;9.65;;;4.13;;
5787;SDS011;2920;48.158;12.254;2022-10-16T07:01:06;6.47;;;4.35;;
5787;SDS011;2920;48.158;12.254;2022-10-16T07:03:32;5.38;;;3.78;;
5787;SDS011;2920;48.158;12.254;2022-10-16T07:06:01;5.72;;;4.05;;
5787;SDS011;2920;48.158;12.254;2022-10-16T07:08:30;5.90;;;4.22;;
5787;SDS011;2920;48.158;12.254;2022-10-16T07:11:00;6.13;;;3.97;;
5787;SDS011;2920;48.158;12.254;2022-10-16T07:13:26;6.20;;;3.92;;
5787;SDS011;2920;48.158;12.254;2022-10-16T07:15:51;4.40;;;3.58;;
5787;SDS011;2920;48.158;12.254;2022-10-16T07:18:16;5.53;;;3.25;;
5787;SDS011;2920;48.158;12.254;2022-10-16T07:20:42;4.43;;;3.28;;
5787;SDS011;2920;48.158;12.254;2022-10-16T07:23:07;5.72;;;3.88;;
5787;SDS011;2920;48.158;12.254;2022-10-16T07:25:32;6.82;;;3.50;;
5787;SDS011;2920;48.158;12.254;2022-10-16T07:27:58;4.30;;;3.05;;
5787;SDS011;2920;48.158;12.254;2022-10-16T07:30:23;4.93;;;3.33;;
5787;SDS011;2920;48.158;12.254;2022-10-16T07:32:48;6.63;;;3.55;;
5787;SDS011;2920;48.158;12.254;2022-10-16T07:35:14;6.40;;;3.80;;
5787;SDS011;2920;48.158;12.254;2022-10-16T07:37:39;7.57;;;3.70;;
5787;SDS011;2920;48.158;12.254;2022-10-16T07:40:04;5.68;;;3.45;;
5787;SDS011;2920;48.158;12.254;2022-10-16T07:42:30;5.55;;;4.15;;
5787;SDS011;2920;48.158;12.254;2022-10-16T07:44:56;6.70;;;4.10;;
5787;SDS011;2920;48.158;12.254;2022-10-16T07:47:21;6.32;;;4.07;;
5787;SDS011;2920;48.158;12.254;2022-10-16T07:49:46;8.50;;;4.28;;
5787;SDS011;2920;48.158;12.254;2022-10-16T07:52:12;5.85;;;3.70;;
5787;SDS011;2920;48.158;12.254;2022-10-16T07:54:37;6.78;;;3.80;;
5787;SDS011;2920;48.158;12.254;2022-10-16T07:57:02;4.53;;;3.60;;
5787;SDS011;2920;48.158;12.254;2022-10-16T07:59:27;4.63;;;3.60;;
5787;SDS011;2920;48.158;12.254;2022-10-16T08:01:53;7.53;;;3.75;;
5787;SDS011;2920;48.158;12.254;2022-10-16T08:04:18;5.53;;;3.40;;
5787;SDS011;2920;48.158;12.254;2022-10-16T08:06:43;4.88;;;3.75;;
5787;SDS011;2920;48.158;12.254;2022-10-16T08:09:09;5.20;;;3.33;;
5787;SDS011;2920;48.158;12.254;2022-10-16T08:11:34;5.05;;;3.50;;
5787;SDS011;2920;48.158;12.254;2022-10-16T08:14:00;4.70;;;3.63;;
5787;SDS011;2920;48.158;12.254;2022-10-16T08:16:25;6.43;;;3.58;;
5787;SDS011;2920;48.158;12.254;2022-10-16T08:18:50;4.57;;;2.92;;
5787;SDS011;2920;48.158;12.254;2022-10-16T08:21:17;3.78;;;3.15;;
5787;SDS011;2920;48.158;12.254;2022-10-16T08:23:43;5.68;;;3.20;;
5787;SDS011;2920;48.158;12.254;2022-10-16T08:26:12;5.72;;;2.92;;
5787;SDS011;2920;48.158;12.254;2022-10-16T08:28:37;3.20;;;2.50;;
5787;SDS011;2920;48.158;12.254;2022-10-16T08:31:07;4.57;;;2.88;;
5787;SDS011;2920;48.158;12.254;2022-10-16T08:33:33;4.43;;;2.92;;
5787;SDS011;2920;48.158;12.254;2022-10-16T08:36:00;5.00;;;3.15;;
5787;SDS011;2920;48.158;12.254;2022-10-16T08:38:25;5.15;;;3.25;;
5787;SDS011;2920;48.158;12.254;2022-10-16T08:40:50;7.88;;;3.08;;
5787;SDS011;2920;48.158;12.254;2022-10-16T08:51:16;4.50;;;3.20;;
5787;SDS011;2920;48.158;12.254;2022-10-16T08:53:48;6.22;;;3.30;;
5787;SDS011;2920;48.158;12.254;2022-10-16T08:56:17;6.32;;;3.38;;
5787;SDS011;2920;48.158;12.254;2022-10-16T08:58:43;5.45;;;2.70;;
5787;SDS011;2920;48.158;12.254;2022-10-16T09:01:17;5.32;;;2.97;;
5787;SDS011;2920;48.158;12.254;2022-10-16T09:20:26;6.35;;;2.75;;
5787;SDS011;2920;48.158;12.254;2022-10-16T09:22:35;7.05;;;3.00;;
5787;SDS011;2920;48.158;12.254;2022-10-16T09:25:00;3.30;;;2.67;;
5787;SDS011;2920;48.158;12.254;2022-10-16T09:27:35;7.82;;;3.20;;
5787;SDS011;2920;48.158;12.254;2022-10-16T09:30:01;4.70;;;2.78;;
5787;SDS011;2920;48.158;12.254;2022-10-16T09:32:31;4.78;;;2.92;;
5787;SDS011;2920;48.158;12.254;2022-10-16T09:34:58;3.42;;;2.60;;
5787;SDS011;2920;48.158;12.254;2022-10-16T09:37:23;5.68;;;2.78;;
5787;SDS011;2920;48.158;12.254;2022-10-16T09:39:50;3.83;;;2.97;;
5787;SDS011;2920;48.158;12.254;2022-10-16T09:45:21;3.50;;;2.40;;
5787;SDS011;2920;48.158;12.254;2022-10-16T09:47:48;3.28;;;2.72;;
5787;SDS011;2920;48.158;12.254;2022-10-16T09:50:24;6.10;;;3.03;;
5787;SDS011;2920;48.158;12.254;2022-10-16T09:53:01;5.70;;;2.58;;
5787;SDS011;2920;48.158;12.254;2022-10-16T09:55:28;3.28;;;2.50;;
5787;SDS011;2920;48.158;12.254;2022-10-16T09:57:54;7.93;;;2.85;;
5787;SDS011;2920;48.158;12.254;2022-10-16T10:00:20;6.25;;;2.67;;
5787;SDS011;2920;48.158;12.254;2022-10-16T10:02:47;3.05;;;2.58;;
5787;SDS011;2920;48.158;12.254;2022-10-16T10:05:26;3.92;;;2.50;;
5787;SDS011;2920;48.158;12.254;2022-10-16T10:07:56;5.47;;;2.65;;
5787;SDS011;2920;48.158;12.254;2022-10-16T10:10:27;4.68;;;2.40;;
5787;SDS011;2920;48.158;12.254;2022-10-16T10:12:54;4.38;;;2.72;;
5787;SDS011;2920;48.158;12.254;2022-10-16T10:15:20;3.75;;;2.65;;
5787;SDS011;2920;48.158;12.254;2022-10-16T10:17:50;4.25;;;2.83;;
5787;SDS011;2920;48.158;12.254;2022-10-16T10:20:34;5.57;;;2.50;;
5787;SDS011;2920;48.158;12.254;2022-10-16T10:23:24;5.38;;;2.85;;
5787;SDS011;2920;48.158;12.254;2022-10-16T10:26:34;3.42;;;2.42;;
5787;SDS011;2920;48.158;12.254;2022-10-16T10:28:45;4.32;;;2.13;;
5787;SDS011;2920;48.158;12.254;2022-10-16T10:34:08;2.63;;;2.10;;
5787;SDS011;2920;48.158;12.254;2022-10-16T10:42:22;9.48;;;2.25;;
5787;SDS011;2920;48.158;12.254;2022-10-16T10:45:12;8.32;;;2.40;;
5787;SDS011;2920;48.158;12.254;2022-10-16T10:50:45;3.33;;;2.20;;
5787;SDS011;2920;48.158;12.254;2022-10-16T10:56:19;3.58;;;2.30;;
5787;SDS011;2920;48.158;12.254;2022-10-16T11:07:01;2.65;;;2.08;;
5787;SDS011;2920;48.158;12.254;2022-10-16T11:20:41;3.38;;;2.20;;
5787;SDS011;2920;48.158;12.254;2022-10-16T11:25:46;2.50;;;2.03;;
5787;SDS011;2920;48.158;12.254;2022-10-16T11:28:17;4.43;;;2.22;;
5787;SDS011;2920;48.158;12.254;2022-10-16T11:49:57;3.03;;;1.95;;
5787;SDS011;2920;48.158;12.254;2022-10-16T11:57:30;2.47;;;1.90;;
5787;SDS011;2920;48.158;12.254;2022-10-16T12:07:55;2.47;;;2.05;;
5787;SDS011;2920;48.158;12.254;2022-10-16T12:10:27;4.63;;;1.83;;
5787;SDS011;2920;48.158;12.254;2022-10-16T12:12:53;1.83;;;1.70;;
5787;SDS011;2920;48.158;12.254;2022-10-16T12:17:44;3.05;;;2.10;;
5787;SDS011;2920;48.158;12.254;2022-10-16T12:25:41;1.90;;;1.80;;
5787;SDS011;2920;48.158;12.254;2022-10-16T12:30:39;2.40;;;1.50;;
5787;SDS011;2920;48.158;12.254;2022-10-16T12:33:06;2.17;;;1.90;;
5787;SDS011;2920;48.158;12.254;2022-10-16T12:38:20;2.15;;;1.77;;
5787;SDS011;2920;48.158;12.254;2022-10-16T12:41:03;4.00;;;2.00;;
5787;SDS011;2920;48.158;12.254;2022-10-16T12:48:34;2.33;;;1.83;;
5787;SDS011;2920;48.158;12.254;2022-10-16T12:51:10;1.67;;;1.58;;
5787;SDS011;2920;48.158;12.254;2022-10-16T12:59:13;1.93;;;1.60;;
5787;SDS011;2920;48.158;12.254;2022-10-16T13:04:45;1.98;;;1.80;;
5787;SDS011;2920;48.158;12.254;2022-10-16T13:07:40;1.33;;;1.23;;
5787;SDS011;2920;48.158;12.254;2022-10-16T13:13:05;3.95;;;1.60;;
5787;SDS011;2920;48.158;12.254;2022-10-16T13:15:52;1.30;;;1.20;;
5787;SDS011;2920;48.158;12.254;2022-10-16T13:26:57;1.30;;;1.20;;
5787;SDS011;2920;48.158;12.254;2022-10-16T13:29:29;1.20;;;1.10;;
5787;SDS011;2920;48.158;12.254;2022-10-16T13:31:55;1.30;;;1.20;;
5787;SDS011;2920;48.158;12.254;2022-10-16T13:34:21;1.30;;;1.20;;
5787;SDS011;2920;48.158;12.254;2022-10-16T13:36:51;1.33;;;1.23;;
5787;SDS011;2920;48.158;12.254;2022-10-16T13:42:01;1.85;;;1.30;;
5787;SDS011;2920;48.158;12.254;2022-10-16T13:44:31;2.10;;;1.40;;
5787;SDS011;2920;48.158;12.254;2022-10-16T13:47:01;1.25;;;1.15;;
5787;SDS011;2920;48.158;12.254;2022-10-16T13:49:27;1.40;;;1.30;;
5787;SDS011;2920;48.158;12.254;2022-10-16T13:51:59;2.65;;;1.38;;
5787;SDS011;2920;48.158;12.254;2022-10-16T13:54:25;1.23;;;1.13;;
5787;SDS011;2920;48.158;12.254;2022-10-16T13:56:52;1.42;;;1.23;;
5787;SDS011;2920;48.158;12.254;2022-10-16T13:59:36;1.30;;;1.20;;
5787;SDS011;2920;48.158;12.254;2022-10-16T14:02:37;1.38;;;1.27;;
5787;SDS011;2920;48.158;12.254;2022-10-16T14:05:00;1.33;;;1.23;;
5787;SDS011;2920;48.158;12.254;2022-10-16T14:07:26;1.27;;;1.17;;
5787;SDS011;2920;48.158;12.254;2022-10-16T14:09:53;1.30;;;1.20;;
5787;SDS011;2920;48.158;12.254;2022-10-16T14:12:20;2.63;;;1.10;;
5787;SDS011;2920;48.158;12.254;2022-10-16T14:14:47;1.27;;;1.13;;
5787;SDS011;2920;48.158;12.254;2022-10-16T14:17:15;3.00;;;1.20;;
5787;SDS011;2920;48.158;12.254;2022-10-16T14:19:45;1.30;;;1.20;;
5787;SDS011;2920;48.158;12.254;2022-10-16T14:22:19;3.53;;;1.25;;
5787;SDS011;2920;48.158;12.254;2022-10-16T14:24:51;1.42;;;1.15;;
5787;SDS011;2920;48.158;12.254;2022-10-16T14:27:28;1.85;;;1.30;;
5787;SDS011;2920;48.158;12.254;2022-10-16T14:30:28;1.47;;;1.30;;
5787;SDS011;2920;48.158;12.254;2022-10-16T14:32:54;1.20;;;1.10;;
5787;SDS011;2920;48.158;12.254;2022-10-16T14:35:22;6.15;;;1.30;;
5787;SDS011;2920;48.158;12.254;2022-10-16T14:38:17;1.20;;;1.10;;
5787;SDS011;2920;48.158;12.254;2022-10-16T14:40:46;1.27;;;1.15;;
5787;SDS011;2920;48.158;12.254;2022-10-16T14:43:17;2.20;;;1.17;;
5787;SDS011;2920;48.158;12.254;2022-10-16T14:45:49;1.30;;;1.20;;
5787;SDS011;2920;48.158;12.254;2022-10-16T14:48:16;1.60;;;1.33;;
5787;SDS011;2920;48.158;12.254;2022-10-16T14:50:42;1.10;;;1.00;;
5787;SDS011;2920;48.158;12.254;2022-10-16T14:53:09;1.88;;;1.10;;
5787;SDS011;2920;48.158;12.254;2022-10-16T14:55:36;1.70;;;1.20;;
5787;SDS011;2920;48.158;12.254;2022-10-16T14:58:02;1.33;;;1.13;;
5787;SDS011;2920;48.158;12.254;2022-10-16T15:00:27;1.63;;;1.30;;
5787;SDS011;2920;48.158;12.254;2022-10-16T15:02:52;1.08;;;0.90;;
5787;SDS011;2920;48.158;12.254;2022-10-16T15:07:51;1.52;;;1.17;;
5787;SDS011;2920;48.158;12.254;2022-10-16T15:10:18;1.05;;;0.95;;
5787;SDS011;2920;48.158;12.254;2022-10-16T15:12:45;1.42;;;1.13;;
5787;SDS011;2920;48.158;12.254;2022-10-16T15:17:48;1.40;;;1.23;;
5787;SDS011;2920;48.158;12.254;2022-10-16T15:20:21;1.15;;;1.05;;
5787;SDS011;2920;48.158;12.254;2022-10-16T15:22:47;1.20;;;1.00;;
5787;SDS011;2920;48.158;12.254;2022-10-16T15:25:35;1.10;;;1.00;;
5787;SDS011;2920;48.158;12.254;2022-10-16T15:28:06;1.80;;;1.30;;
5787;SDS011;2920;48.158;12.254;2022-10-16T15:30:32;1.98;;;1.30;;
5787;SDS011;2920;48.158;12.254;2022-10-16T15:32:58;3.85;;;1.40;;
5787;SDS011;2920;48.158;12.254;2022-10-16T15:35:23;4.05;;;1.52;;
5787;SDS011;2920;48.158;12.254;2022-10-16T15:37:49;4.82;;;1.50;;
5787;SDS011;2920;48.158;12.254;2022-10-16T15:40:15;2.72;;;1.27;;
5787;SDS011;2920;48.158;12.254;2022-10-16T15:42:41;4.43;;;1.45;;
5787;SDS011;2920;48.158;12.254;2022-10-16T15:45:06;1.98;;;1.40;;
5787;SDS011;2920;48.158;12.254;2022-10-16T15:47:33;2.08;;;1.45;;
5787;SDS011;2920;48.158;12.254;2022-10-16T15:49:58;2.08;;;1.40;;
5787;SDS011;2920;48.158;12.254;2022-10-16T15:52:23;1.20;;;1.08;;
5787;SDS011;2920;48.158;12.254;2022-10-16T15:54:49;2.38;;;1.25;;
5787;SDS011;2920;48.158;12.254;2022-10-16T15:57:14;3.50;;;1.33;;
5787;SDS011;2920;48.158;12.254;2022-10-16T15:59:39;3.28;;;1.50;;
5787;SDS011;2920;48.158;12.254;2022-10-16T16:02:05;3.00;;;1.10;;
5787;SDS011;2920;48.158;12.254;2022-10-16T16:04:30;2.88;;;1.48;;
5787;SDS011;2920;48.158;12.254;2022-10-16T16:06:56;3.92;;;1.63;;
5787;SDS011;2920;48.158;12.254;2022-10-16T16:09:21;6.93;;;1.90;;
5787;SDS011;2920;48.158;12.254;2022-10-16T16:11:46;4.40;;;1.65;;
5787;SDS011;2920;48.158;12.254;2022-10-16T16:14:13;8.05;;;2.20;;
5787;SDS011;2920;48.158;12.254;2022-10-16T16:16:38;3.58;;;1.67;;
5787;SDS011;2920;48.158;12.254;2022-10-16T16:19:04;3.70;;;1.17;;
5787;SDS011;2920;48.158;12.254;2022-10-16T16:21:31;2.88;;;1.50;;
5787;SDS011;2920;48.158;12.254;2022-10-16T16:23:56;3.28;;;1.60;;
5787;SDS011;2920;48.158;12.254;2022-10-16T16:26:25;1.73;;;1.30;;
5787;SDS011;2920;48.158;12.254;2022-10-16T16:28:56;1.80;;;1.30;;
5787;SDS011;2920;48.158;12.254;2022-10-16T16:31:25;1.38;;;1.23;;
5787;SDS011;2920;48.158;12.254;2022-10-16T16:33:52;1.60;;;1.30;;
5787;SDS011;2920;48.158;12.254;2022-10-16T16:36:17;1.90;;;1.08;;
5787;SDS011;2920;48.158;12.254;2022-10-16T16:38:43;1.45;;;1.20;;
5787;SDS011;2920;48.158;12.254;2022-10-16T16:41:13;1.67;;;1.30;;
5787;SDS011;2920;48.158;12.254;2022-10-16T16:43:45;3.47;;;1.30;;
5787;SDS011;2920;48.158;12.254;2022-10-16T16:46:12;2.63;;;1.38;;
5787;SDS011;2920;48.158;12.254;2022-10-16T16:48:38;2.85;;;1.33;;
5787;SDS011;2920;48.158;12.254;2022-10-16T16:51:07;5.97;;;1.63;;
5787;SDS011;2920;48.158;12.254;2022-10-16T16:53:34;2.60;;;1.35;;
5787;SDS011;2920;48.158;12.254;2022-10-16T16:56:03;1.95;;;1.30;;
5787;SDS011;2920;48.158;12.254;2022-10-16T16:58:30;3.47;;;1.33;;
5787;SDS011;2920;48.158;12.254;2022-10-16T17:00:56;2.20;;;1.33;;
5787;SDS011;2920;48.158;12.254;2022-10-16T17:03:21;4.78;;;1.38;;
5787;SDS011;2920;48.158;12.254;2022-10-16T17:06:00;1.58;;;1.30;;
5787;SDS011;2920;48.158;12.254;2022-10-16T17:08:28;1.80;;;1.50;;
5787;SDS011;2920;48.158;12.254;2022-10-16T17:10:54;2.42;;;1.20;;
5787;SDS011;2920;48.158;12.254;2022-10-16T17:13:23;2.28;;;1.52;;
5787;SDS011;2920;48.158;12.254;2022-10-16T17:15:50;5.47;;;2.30;;
5787;SDS011;2920;48.158;12.254;2022-10-16T17:18:17;9.95;;;3.72;;
5787;SDS011;2920;48.158;12.254;2022-10-16T17:20:43;8.95;;;2.53;;
5787;SDS011;2920;48.158;12.254;2022-10-16T17:23:09;5.43;;;2.42;;
5787;SDS011;2920;48.158;12.254;2022-10-16T17:25:36;8.98;;;3.38;;
5787;SDS011;2920;48.158;12.254;2022-10-16T17:28:04;4.85;;;2.33;;
5787;SDS011;2920;48.158;12.254;2022-10-16T17:30:30;4.97;;;1.77;;
5787;SDS011;2920;48.158;12.254;2022-10-16T17:32:56;4.75;;;2.25;;
5787;SDS011;2920;48.158;12.254;2022-10-16T17:35:21;4.57;;;2.60;;
5787;SDS011;2920;48.158;12.254;2022-10-16T17:37:46;5.70;;;2.45;;
5787;SDS011;2920;48.158;12.254;2022-10-16T17:40:12;4.53;;;1.90;;
5787;SDS011;2920;48.158;12.254;2022-10-16T17:42:37;3.30;;;1.85;;
5787;SDS011;2920;48.158;12.254;2022-10-16T17:45:02;6.53;;;2.00;;
5787;SDS011;2920;48.158;12.254;2022-10-16T17:47:28;2.60;;;1.70;;
5787;SDS011;2920;48.158;12.254;2022-10-16T17:49:53;6.88;;;1.73;;
5787;SDS011;2920;48.158;12.254;2022-10-16T17:52:18;2.88;;;1.77;;
5787;SDS011;2920;48.158;12.254;2022-10-16T17:54:44;2.95;;;1.65;;